Time;durP1;ratioP1;P1;durP2;ratioP2;P2;SDS_P1;SDS_P2;PMS_P1;PMS_P2;Temp;Humidity;BMP_temperature;BMP_pressure;BME280_temperature;BME280_humidity;BME280_pressure;Samples;Min_cycle;Max_cycle;Signal;HPM_P1;HPM_P2
2021/12/19 00:00:19;;;;;;;40.35;15.60;;;;;;;3.04;100.00;103079.78;5008686;28;20041;-81
2021/12/19 00:08:28;;;;;;;43.38;15.88;;;;;;;3.20;100.00;103085.25;5022777;28;20060;-80
2021/12/19 00:10:55;;;;;;;39.97;13.68;;;;;;;3.19;100.00;103074.69;5025019;28;20025;-81
2021/12/19 00:13:24;;;;;;;46.78;15.73;;;;;;;3.41;100.00;103080.72;5022932;28;20540;-81
2021/12/19 00:15:50;;;;;;;45.05;16.85;;;;;;;3.58;100.00;103089.72;5027875;28;20128;-81
2021/12/19 00:18:16;;;;;;;46.38;15.73;;;;;;;3.59;100.00;103064.81;4997419;28;20476;-81
2021/12/19 00:20:41;;;;;;;44.58;15.63;;;;;;;3.55;100.00;103063.25;5021864;28;20518;-81
2021/12/19 00:23:08;;;;;;;58.80;21.20;;;;;;;3.78;100.00;103086.94;5024741;28;20021;-81
2021/12/19 00:25:33;;;;;;;47.38;17.95;;;;;;;3.72;100.00;103071.28;5029589;28;20068;-81
2021/12/19 00:27:59;;;;;;;42.55;16.60;;;;;;;3.75;100.00;103060.47;5029373;28;20402;-79
2021/12/19 00:30:25;;;;;;;48.38;17.83;;;;;;;3.78;100.00;103063.00;5030329;28;20414;-81
2021/12/19 00:32:50;;;;;;;46.25;17.17;;;;;;;3.84;100.00;103069.84;5020887;28;20037;-81
2021/12/19 00:35:16;;;;;;;37.60;14.65;;;;;;;3.80;100.00;103058.47;5007177;28;20378;-80
2021/12/19 00:37:42;;;;;;;44.53;15.43;;;;;;;3.92;100.00;103079.16;5021120;28;20048;-81
2021/12/19 00:40:08;;;;;;;45.38;15.93;;;;;;;3.99;100.00;103068.19;5020546;28;20030;-81
2021/12/19 00:42:36;;;;;;;45.72;17.52;;;;;;;4.08;100.00;103076.59;5023320;28;20033;-81
2021/12/19 00:45:15;;;;;;;49.67;17.05;;;;;;;4.06;100.00;103064.31;5011903;28;20099;-80
2021/12/19 00:47:41;;;;;;;43.28;16.80;;;;;;;4.15;100.00;103079.81;5014418;28;20096;-81
2021/12/19 00:50:07;;;;;;;34.90;13.98;;;;;;;4.16;100.00;103073.56;5024502;28;20029;-81
2021/12/19 00:52:33;;;;;;;40.47;15.35;;;;;;;4.12;100.00;103042.69;5006765;28;20333;-81
2021/12/19 00:54:58;;;;;;;35.92;15.75;;;;;;;4.25;100.00;103059.75;5001734;28;20025;-80
2021/12/19 00:57:24;;;;;;;44.78;15.90;;;;;;;4.26;100.00;103055.28;5017963;28;20395;-81
2021/12/19 00:59:50;;;;;;;45.28;16.30;;;;;;;4.37;100.00;103066.28;5010034;28;20038;-81
2021/12/19 01:02:15;;;;;;;32.58;13.45;;;;;;;4.39;100.00;103057.28;5009992;28;20060;-80
2021/12/19 01:04:41;;;;;;;26.88;11.30;;;;;;;4.45;100.00;103061.41;5039719;28;20478;-81
2021/12/19 01:07:07;;;;;;;38.03;14.80;;;;;;;4.53;100.00;103067.19;5010070;28;20029;-82
2021/12/19 01:09:32;;;;;;;36.70;15.00;;;;;;;4.58;100.00;103064.31;5009702;28;20068;-82
2021/12/19 01:11:58;;;;;;;33.97;13.27;;;;;;;4.60;100.00;103051.75;5023199;28;20271;-80
2021/12/19 01:14:24;;;;;;;40.88;14.35;;;;;;;4.69;100.00;103061.94;5025078;28;20448;-81
2021/12/19 01:16:50;;;;;;;34.33;13.60;;;;;;;4.71;100.00;103057.38;5029670;28;20365;-81
2021/12/19 01:19:16;;;;;;;40.78;15.48;;;;;;;4.69;100.00;103056.59;5006669;28;20534;-81
2021/12/19 01:21:41;;;;;;;37.00;13.63;;;;;;;4.71;100.00;103057.38;5019057;28;20099;-81
2021/12/19 01:24:07;;;;;;;32.30;13.82;;;;;;;4.70;100.00;103054.78;5017020;28;20033;-82
2021/12/19 01:26:33;;;;;;;29.80;12.20;;;;;;;4.73;100.00;103058.16;5021638;28;20083;-82
2021/12/19 01:28:58;;;;;;;41.08;14.82;;;;;;;4.76;100.00;103055.34;5021641;28;20030;-82
2021/12/19 01:31:24;;;;;;;38.00;14.45;;;;;;;4.81;100.00;103061.25;5027075;28;20266;-81
2021/12/19 01:33:53;;;;;;;35.28;14.88;;;;;;;4.80;100.00;103050.69;5012098;28;20033;-81
2021/12/19 01:36:18;;;;;;;35.85;13.50;;;;;;;4.73;100.00;103050.16;4987444;28;20056;-81
2021/12/19 01:38:44;;;;;;;33.60;13.35;;;;;;;4.69;100.00;103042.41;5024501;28;20034;-81
2021/12/19 01:41:10;;;;;;;36.65;15.80;;;;;;;4.81;100.00;103050.59;4995865;28;20553;-81
2021/12/19 01:43:35;;;;;;;32.58;15.27;;;;;;;4.69;100.00;103029.94;5009709;28;20061;-81
2021/12/19 01:46:02;;;;;;;34.55;14.70;;;;;;;4.73;100.00;103039.50;5010338;28;20041;-80
2021/12/19 01:48:27;;;;;;;36.28;14.07;;;;;;;4.67;100.00;103021.16;5013589;28;20041;-81
2021/12/19 01:50:55;;;;;;;30.42;11.82;;;;;;;4.84;100.00;103045.13;5036795;28;20056;-79
2021/12/19 01:53:21;;;;;;;21.85;9.30;;;;;;;4.91;100.00;103044.78;5020885;28;21798;-79
2021/12/19 01:55:48;;;;;;;33.90;12.93;;;;;;;4.93;100.00;103048.25;5025782;28;20375;-80
2021/12/19 01:58:14;;;;;;;31.02;13.00;;;;;;;4.91;100.00;103047.47;5032667;28;20040;-81
2021/12/19 02:00:46;;;;;;;21.73;9.32;;;;;;;4.96;100.00;103048.06;5027638;28;20041;-81
2021/12/19 02:03:12;;;;;;;25.85;10.48;;;;;;;5.00;100.00;103044.28;5016714;28;20041;-81
2021/12/19 02:05:39;;;;;;;28.75;11.77;;;;;;;5.02;100.00;103045.06;5024174;28;20490;-81
2021/12/19 02:08:05;;;;;;;29.70;11.88;;;;;;;4.93;100.00;103024.25;5022396;28;20108;-81
2021/12/19 02:10:32;;;;;;;26.73;10.00;;;;;;;5.03;100.00;103036.13;5024292;28;20025;-81
2021/12/19 02:12:59;;;;;;;29.38;10.98;;;;;;;5.12;100.00;103046.28;5006770;28;20034;-81
2021/12/19 02:15:27;;;;;;;35.85;12.07;;;;;;;5.10;100.00;103026.84;5003284;28;20057;-80
2021/12/19 02:17:57;;;;;;;34.00;13.40;;;;;;;5.03;100.00;103014.81;5023482;28;20026;-81
2021/12/19 02:20:23;;;;;;;36.75;13.98;;;;;;;5.01;100.00;103022.88;5037875;28;20045;-81
2021/12/19 02:22:49;;;;;;;35.95;12.02;;;;;;;4.89;100.00;103004.03;4992251;28;20033;-80
2021/12/19 02:25:15;;;;;;;33.33;11.88;;;;;;;4.91;100.00;103013.66;5042717;28;20116;-81
2021/12/19 02:27:42;;;;;;;30.75;11.88;;;;;;;4.86;100.00;103018.38;5008640;28;20029;-82
2021/12/19 02:30:09;;;;;;;36.10;12.27;;;;;;;4.72;100.00;103016.47;4989499;28;20052;-80
2021/12/19 02:32:37;;;;;;;20.40;8.55;;;;;;;4.59;100.00;103015.38;5018403;28;20610;-81
2021/12/19 02:35:13;;;;;;;28.25;12.90;;;;;;;4.48;100.00;103010.63;4991278;28;20124;-81
2021/12/19 02:40:31;;;;;;;32.08;11.02;;;;;;;4.36;100.00;103006.78;5014420;28;20029;-80
2021/12/19 02:48:29;;;;;;;36.33;13.25;;;;;;;4.08;100.00;103003.88;5009077;28;20046;-81
2021/12/19 02:50:55;;;;;;;29.63;10.65;;;;;;;3.91;100.00;102991.38;5008169;28;20113;-81
2021/12/19 02:53:35;;;;;;;33.88;12.23;;;;;;;3.68;100.00;102955.31;5017567;28;20029;-80
2021/12/19 02:56:04;;;;;;;27.27;10.98;;;;;;;3.69;100.00;102981.81;5023073;28;20060;-80
2021/12/19 02:58:30;;;;;;;36.85;12.95;;;;;;;3.52;100.00;102981.81;4990641;28;20029;-81
2021/12/19 03:00:58;;;;;;;33.60;11.23;;;;;;;3.44;100.00;102982.19;5026980;28;20034;-81
2021/12/19 03:03:24;;;;;;;40.03;13.65;;;;;;;3.44;100.00;102983.97;5021025;28;20032;-80
2021/12/19 03:05:49;;;;;;;36.28;12.15;;;;;;;3.39;100.00;102978.03;5002544;28;20408;-81
2021/12/19 03:08:15;;;;;;;37.10;11.73;;;;;;;3.40;100.00;102977.94;5004095;28;20466;-81
2021/12/19 03:18:39;;;;;;;31.05;10.73;;;;;;;3.23;100.00;102986.75;5022793;28;20047;-80
2021/12/19 03:21:10;;;;;;;32.13;11.85;;;;;;;3.32;100.00;102969.47;5003805;28;20576;-81
2021/12/19 03:23:36;;;;;;;32.40;12.23;;;;;;;3.42;100.00;102988.53;5020018;28;20033;-82
2021/12/19 03:26:02;;;;;;;34.55;10.77;;;;;;;3.47;100.00;102976.72;5022334;28;20376;-80
2021/12/19 03:28:27;;;;;;;37.95;12.13;;;;;;;3.48;100.00;102969.59;5020421;28;20041;-81
2021/12/19 03:30:53;;;;;;;37.30;12.65;;;;;;;3.48;100.00;102973.09;5029439;28;20486;-81
2021/12/19 03:33:20;;;;;;;32.72;12.70;;;;;;;3.47;100.00;102974.06;5022169;28;22188;-81
2021/12/19 03:35:46;;;;;;;37.47;13.38;;;;;;;3.46;100.00;102969.66;5004584;28;20290;-81
2021/12/19 03:38:13;;;;;;;33.67;11.65;;;;;;;3.43;100.00;102976.94;5023948;28;20037;-80
2021/12/19 03:40:43;;;;;;;32.72;11.85;;;;;;;3.30;100.00;102968.69;4994863;28;20052;-81
2021/12/19 03:43:16;;;;;;;30.40;10.55;;;;;;;3.18;100.00;102971.94;5025352;28;20128;-79
2021/12/19 03:45:43;;;;;;;42.42;12.15;;;;;;;2.85;100.00;102961.97;4990330;28;20037;-80
2021/12/19 03:48:12;;;;;;;31.27;11.48;;;;;;;2.70;100.00;102975.94;5024889;28;20041;-81
2021/12/19 03:50:43;;;;;;;25.02;9.45;;;;;;;2.56;100.00;102971.28;5023383;28;20030;-81
2021/12/19 03:53:09;;;;;;;30.48;11.23;;;;;;;2.38;100.00;102968.53;5019787;28;20468;-82
2021/12/19 03:55:35;;;;;;;33.80;12.30;;;;;;;2.19;100.00;102965.78;5021058;28;21853;-81
2021/12/19 03:58:02;;;;;;;34.63;11.27;;;;;;;1.92;100.00;102957.25;5015220;28;20037;-80
2021/12/19 04:00:32;;;;;;;31.75;11.32;;;;;;;1.76;100.00;102965.00;5021130;28;20037;-81
2021/12/19 04:03:04;;;;;;;37.40;11.63;;;;;;;1.69;100.00;102962.66;5036684;28;20121;-81
2021/12/19 04:05:30;;;;;;;33.83;10.00;;;;;;;1.60;100.00;102957.75;5008788;28;20037;-81
2021/12/19 04:07:56;;;;;;;34.35;11.52;;;;;;;1.47;100.00;102966.19;4990248;28;20029;-80
2021/12/19 04:10:22;;;;;;;32.45;12.38;;;;;;;1.43;100.00;102963.72;5008645;28;20098;-80
2021/12/19 04:12:49;;;;;;;31.90;12.43;;;;;;;1.38;100.00;102953.34;5016607;28;20104;-80
2021/12/19 04:15:15;;;;;;;35.35;12.80;;;;;;;1.21;100.00;102946.03;4989769;28;20523;-80
2021/12/19 04:17:40;;;;;;;33.42;12.20;;;;;;;1.15;100.00;102948.94;5020976;28;20403;-81
2021/12/19 04:20:07;;;;;;;32.97;10.48;;;;;;;1.16;100.00;102947.16;5020534;28;20801;-80
2021/12/19 04:22:33;;;;;;;31.83;10.18;;;;;;;1.26;100.00;102952.03;5024087;28;20033;-81
2021/12/19 04:24:58;;;;;;;32.70;10.65;;;;;;;1.49;100.00;102944.94;5002132;28;20059;-81
2021/12/19 04:27:24;;;;;;;40.03;11.45;;;;;;;1.74;100.00;102953.56;5020793;28;20033;-81
2021/12/19 04:29:52;;;;;;;32.25;9.82;;;;;;;1.90;100.00;102955.59;5002963;28;20038;-81
2021/12/19 04:32:26;;;;;;;26.80;9.15;;;;;;;1.97;100.00;102963.22;5001294;28;20061;-81
2021/12/19 04:34:52;;;;;;;37.08;12.45;;;;;;;1.97;100.00;102963.22;5009118;28;20092;-81
2021/12/19 04:37:47;;;;;;;22.05;9.40;;;;;;;1.92;100.00;102953.75;5018227;28;20131;-81
2021/12/19 05:04:10;;;;;;;32.28;10.57;;;;;;;0.28;100.00;102924.00;5022929;28;20471;-80
2021/12/19 05:14:37;;;;;;;36.60;10.02;;;;;;;-0.13;100.00;102952.81;5010682;28;20036;-81
2021/12/19 05:17:08;;;;;;;32.72;10.30;;;;;;;-0.10;100.00;102941.25;5023894;28;20051;-80
2021/12/19 05:19:51;;;;;;;28.67;9.05;;;;;;;-0.08;100.00;102948.22;5009444;28;20117;-81
2021/12/19 05:22:19;;;;;;;29.48;9.73;;;;;;;-0.19;100.00;102942.41;5026600;28;20116;-81
2021/12/19 05:24:50;;;;;;;33.83;11.07;;;;;;;-0.24;100.00;102949.66;5032771;28;20076;-81
2021/12/19 05:27:16;;;;;;;34.58;9.98;;;;;;;-0.33;100.00;102948.19;5025043;28;20053;-80
2021/12/19 05:29:42;;;;;;;30.45;9.63;;;;;;;-0.30;100.00;102940.16;4994188;28;20571;-81
2021/12/19 05:32:08;;;;;;;24.60;9.05;;;;;;;-0.23;100.00;102935.53;5021989;28;20041;-80
2021/12/19 05:34:34;;;;;;;40.55;8.15;;;;;;;-0.19;100.00;102955.63;5009969;28;20034;-81
2021/12/19 05:45:13;;;;;;;23.05;7.35;;;;;;;-0.55;100.00;102958.59;5021597;28;20029;-81
2021/12/19 05:47:45;;;;;;;29.08;8.18;;;;;;;-0.56;100.00;102962.16;5008077;28;20041;-81
2021/12/19 05:50:13;;;;;;;26.55;8.25;;;;;;;-0.63;100.00;102973.00;5005709;28;20398;-80
2021/12/19 05:52:39;;;;;;;22.75;7.70;;;;;;;-0.73;100.00;102964.47;5006578;28;20095;-82
2021/12/19 05:55:05;;;;;;;23.75;7.43;;;;;;;-0.78;100.00;102959.34;4992471;28;20037;-80
2021/12/19 05:57:31;;;;;;;18.30;6.30;;;;;;;-0.80;100.00;102960.28;4994077;28;20136;-81
2021/12/19 05:59:58;;;;;;;19.38;7.47;;;;;;;-0.84;100.00;102961.31;5024742;28;20124;-80
2021/12/19 06:02:24;;;;;;;31.80;6.93;;;;;;;-0.90;100.00;102942.13;5025956;28;20029;-81
2021/12/19 06:04:50;;;;;;;19.83;7.03;;;;;;;-0.81;100.00;102954.16;5026661;28;20659;-79
2021/12/19 06:07:15;;;;;;;26.95;7.63;;;;;;;-0.89;100.00;102951.75;5026004;28;20033;-80
2021/12/19 06:09:41;;;;;;;22.10;7.97;;;;;;;-1.08;100.00;102942.69;5020717;28;20045;-80
2021/12/19 06:12:07;;;;;;;26.17;8.05;;;;;;;-1.15;100.00;102943.75;5012266;28;20375;-81
2021/12/19 06:14:34;;;;;;;21.23;7.18;;;;;;;-1.12;100.00;102949.81;5027811;28;20045;-81
2021/12/19 06:17:01;;;;;;;23.02;7.50;;;;;;;-1.15;100.00;102944.63;5027734;28;20090;-80
2021/12/19 06:19:27;;;;;;;21.02;7.13;;;;;;;-1.39;100.00;102913.69;5006628;28;20128;-81
2021/12/19 06:21:56;;;;;;;20.58;6.95;;;;;;;-1.22;100.00;102952.78;5039649;28;20025;-81
2021/12/19 06:24:22;;;;;;;23.48;7.28;;;;;;;-1.31;100.00;102953.06;5029449;28;20032;-81
2021/12/19 06:26:47;;;;;;;22.42;7.60;;;;;;;-1.40;100.00;102949.78;5026223;28;20128;-82
2021/12/19 06:29:14;;;;;;;22.83;7.53;;;;;;;-1.44;100.00;102958.69;5019140;28;20136;-80
2021/12/19 06:31:39;;;;;;;24.77;8.15;;;;;;;-1.47;100.00;102957.91;5024518;28;20026;-81
2021/12/19 06:34:05;;;;;;;33.40;8.68;;;;;;;-1.69;100.00;102947.09;5024636;28;20243;-81
2021/12/19 06:36:30;;;;;;;34.08;10.50;;;;;;;-1.65;100.00;102964.56;5026132;28;20167;-81
2021/12/19 06:38:56;;;;;;;39.08;10.00;;;;;;;-1.73;100.00;102951.59;5024873;28;20490;-80
2021/12/19 06:41:22;;;;;;;33.42;10.30;;;;;;;-1.59;100.00;102948.56;5026187;28;20493;-81
2021/12/19 06:43:48;;;;;;;43.10;11.40;;;;;;;-1.54;100.00;102954.56;5008501;28;20062;-80
2021/12/19 06:46:14;;;;;;;32.85;10.32;;;;;;;-1.57;100.00;102952.88;5024653;28;20076;-80
2021/12/19 06:48:40;;;;;;;43.95;11.10;;;;;;;-1.56;100.00;102936.16;5001796;28;20033;-80
2021/12/19 06:51:05;;;;;;;40.15;11.32;;;;;;;-1.37;100.00;102949.69;5023346;28;20034;-81
2021/12/19 06:53:31;;;;;;;40.75;10.63;;;;;;;-1.19;100.00;102955.31;5012291;28;20087;-81
2021/12/19 06:55:58;;;;;;;45.63;12.32;;;;;;;-0.95;100.00;102959.88;5007876;28;20037;-81
2021/12/19 06:58:24;;;;;;;45.30;13.32;;;;;;;-0.90;100.00;102954.44;5023081;28;20052;-80
2021/12/19 07:00:50;;;;;;;42.63;11.25;;;;;;;-0.95;100.00;102956.38;5026143;28;20609;-81
2021/12/19 07:03:16;;;;;;;101.45;12.75;;;;;;;-1.03;100.00;102942.50;5008676;28;20124;-82
2021/12/19 07:05:43;;;;;;;77.53;13.13;;;;;;;-1.05;100.00;102939.94;5020905;28;20133;-80
2021/12/19 07:08:09;;;;;;;52.60;10.70;;;;;;;-1.12;100.00;102943.66;5003712;28;20042;-81
2021/12/19 07:10:34;;;;;;;58.38;10.70;;;;;;;-1.14;100.00;102946.38;5026350;28;20545;-81
2021/12/19 07:13:00;;;;;;;47.90;10.23;;;;;;;-1.29;100.00;102941.53;5023390;28;20037;-80
2021/12/19 07:15:27;;;;;;;31.83;9.00;;;;;;;-1.38;100.00;102942.66;5026745;28;20030;-81
2021/12/19 07:17:53;;;;;;;59.30;12.50;;;;;;;-1.46;100.00;102934.09;5010839;28;20120;-80
2021/12/19 07:20:18;;;;;;;53.03;10.65;;;;;;;-1.37;100.00;102933.84;5034621;28;20129;-80
2021/12/19 07:22:44;;;;;;;66.95;12.00;;;;;;;-1.33;100.00;102921.41;5022310;28;20080;-80
2021/12/19 07:25:10;;;;;;;71.97;12.23;;;;;;;-1.19;100.00;102931.56;5022985;28;20053;-81
2021/12/19 07:27:36;;;;;;;61.30;13.02;;;;;;;-1.24;100.00;102937.00;5008141;28;20406;-81
2021/12/19 07:30:02;;;;;;;59.10;13.73;;;;;;;-1.41;100.00;102932.19;4992285;28;20036;-80
2021/12/19 07:32:27;;;;;;;78.88;14.57;;;;;;;-1.51;100.00;102922.81;5012162;28;20029;-80
2021/12/19 07:34:53;;;;;;;74.22;14.05;;;;;;;-1.57;100.00;102912.44;5018215;28;20036;-79
2021/12/19 07:37:20;;;;;;;47.35;13.15;;;;;;;-1.50;100.00;102923.72;5022405;28;20041;-80
2021/12/19 07:40:09;;;;;;;55.22;13.68;;;;;;;-1.57;100.00;102926.50;5022314;28;20029;-81
2021/12/19 07:42:34;;;;;;;47.35;11.73;;;;;;;-1.44;100.00;102928.78;5008941;28;20323;-80
2021/12/19 07:45:00;;;;;;;58.55;12.50;;;;;;;-1.29;100.00;102925.72;4994664;28;20475;-80
2021/12/19 07:47:26;;;;;;;52.30;14.20;;;;;;;-1.26;100.00;102917.69;4993588;28;20256;-80
2021/12/19 07:49:51;;;;;;;74.25;15.75;;;;;;;-1.29;100.00;102924.84;5015898;28;20033;-81
2021/12/19 07:52:17;;;;;;;73.38;15.98;;;;;;;-1.46;100.00;102902.44;5024727;28;20121;-81
2021/12/19 07:54:43;;;;;;;49.60;13.23;;;;;;;-1.37;100.00;102918.03;5023388;28;20509;-81
2021/12/19 07:57:08;;;;;;;44.95;12.85;;;;;;;-1.27;100.00;102923.00;5008624;28;20051;-80
2021/12/19 07:59:34;;;;;;;25.58;8.00;;;;;;;-0.95;100.00;102920.25;5022946;28;20034;-82
2021/12/19 08:02:02;;;;;;;55.15;15.60;;;;;;;-0.72;100.00;102901.00;5024479;28;20037;-79
2021/12/19 08:04:27;;;;;;;64.97;17.45;;;;;;;-0.67;100.00;102903.50;5022521;28;20036;-80
2021/12/19 08:06:53;;;;;;;62.92;17.08;;;;;;;-0.73;100.00;102915.16;4994100;28;20045;-81
2021/12/19 08:09:34;;;;;;;64.38;17.42;;;;;;;-0.84;100.00;102916.41;4988229;28;20040;-79
2021/12/19 08:12:01;;;;;;;17.45;6.95;;;;;;;-0.97;100.00;102922.06;5003835;28;20169;-80
2021/12/19 08:14:27;;;;;;;57.80;14.88;;;;;;;-0.89;100.00;102904.22;4990626;28;20042;-80
2021/12/19 08:16:52;;;;;;;62.90;16.17;;;;;;;-0.85;100.00;102926.09;5018191;28;20048;-80
2021/12/19 08:19:18;;;;;;;55.25;15.82;;;;;;;-0.94;100.00;102923.75;5021245;28;20047;-80
2021/12/19 08:21:44;;;;;;;67.07;16.10;;;;;;;-0.85;100.00;102930.53;4990313;28;20065;-80
2021/12/19 08:24:11;;;;;;;55.50;15.80;;;;;;;-0.92;100.00;102930.72;4992717;28;20468;-81
2021/12/19 08:26:39;;;;;;;69.75;16.40;;;;;;;-0.95;100.00;102917.63;4994998;28;20390;-81
2021/12/19 08:29:05;;;;;;;54.70;16.10;;;;;;;-0.88;100.00;102927.06;4990843;28;20037;-82
2021/12/19 08:31:31;;;;;;;59.25;15.98;;;;;;;-1.06;100.00;102900.38;4996964;28;20072;-83
2021/12/19 08:33:58;;;;;;;68.90;16.45;;;;;;;-0.92;100.00;102930.72;4994618;28;20038;-81
2021/12/19 08:36:24;;;;;;;46.42;14.10;;;;;;;-0.91;100.00;102932.44;5043682;28;20045;-80
2021/12/19 08:38:53;;;;;;;61.42;17.27;;;;;;;-0.96;100.00;102930.84;5012496;28;20124;-82
2021/12/19 08:41:19;;;;;;;55.30;18.13;;;;;;;-1.19;100.00;102921.88;5015442;28;20040;-81
2021/12/19 08:43:45;;;;;;;59.72;18.02;;;;;;;-1.21;100.00;102933.41;5014188;28;20391;-81
2021/12/19 08:46:11;;;;;;;59.53;14.88;;;;;;;-1.30;100.00;102939.78;4997876;28;20037;-82
2021/12/19 08:48:37;;;;;;;52.40;15.55;;;;;;;-1.29;100.00;102945.97;4999721;28;20136;-82
2021/12/19 08:51:03;;;;;;;59.90;15.40;;;;;;;-1.27;100.00;102946.75;5016287;28;20088;-81
2021/12/19 08:53:29;;;;;;;53.70;15.23;;;;;;;-1.27;100.00;102941.47;4997502;28;20061;-81
2021/12/19 08:55:55;;;;;;;61.28;16.42;;;;;;;-1.44;100.00;102900.63;5016120;28;20127;-81
2021/12/19 08:58:21;;;;;;;59.40;16.20;;;;;;;-1.11;100.00;102945.41;5011110;28;20033;-81
2021/12/19 09:00:46;;;;;;;65.63;16.70;;;;;;;-1.09;100.00;102906.59;4994034;28;20038;-81
2021/12/19 09:03:13;;;;;;;56.80;15.98;;;;;;;-0.67;100.00;102935.22;5012318;28;20030;-80
2021/12/19 09:05:39;;;;;;;68.70;17.50;;;;;;;-0.51;100.00;102946.16;5028003;28;20022;-82
2021/12/19 09:08:05;;;;;;;63.95;16.38;;;;;;;-0.45;100.00;102951.22;5028997;28;20056;-81
2021/12/19 09:10:31;;;;;;;61.38;16.95;;;;;;;-0.26;100.00;102933.84;4995860;28;20060;-82
2021/12/19 09:12:57;;;;;;;31.00;9.93;;;;;;;0.16;100.00;102945.59;5019506;28;20493;-80
2021/12/19 09:15:23;;;;;;;58.80;16.40;;;;;;;0.23;100.00;102928.59;5013764;28;20037;-81
2021/12/19 09:17:49;;;;;;;61.35;17.25;;;;;;;0.37;100.00;102942.22;4996608;28;20041;-80
2021/12/19 09:20:15;;;;;;;80.22;21.27;;;;;;;0.69;100.00;102950.75;4998078;28;20038;-80
2021/12/19 09:22:42;;;;;;;71.72;20.35;;;;;;;0.82;100.00;102954.66;5004946;28;20041;-79
2021/12/19 09:25:08;;;;;;;74.97;20.55;;;;;;;0.80;100.00;102956.50;5028915;28;20021;-80
2021/12/19 09:27:34;;;;;;;77.50;20.65;;;;;;;0.79;100.00;102952.09;5013301;28;20477;-83
2021/12/19 09:30:00;;;;;;;69.95;18.23;;;;;;;0.83;100.00;102940.47;5026628;28;20081;-80
2021/12/19 09:32:27;;;;;;;77.80;20.33;;;;;;;0.99;100.00;102947.84;5007175;28;20030;-81
2021/12/19 09:34:53;;;;;;;69.53;21.42;;;;;;;1.00;100.00;102946.91;5021884;28;20427;-81
2021/12/19 09:37:19;;;;;;;79.55;20.40;;;;;;;1.17;100.00;102949.75;5029168;28;20048;-82
2021/12/19 09:39:46;;;;;;;76.35;21.20;;;;;;;1.20;100.00;102952.28;4995381;28;20121;-81
2021/12/19 09:42:14;;;;;;;65.60;18.65;;;;;;;1.52;100.00;102943.00;5009834;28;20033;-81
2021/12/19 09:44:40;;;;;;;78.65;18.83;;;;;;;2.05;100.00;102954.94;5023990;28;20033;-82
2021/12/19 09:47:07;;;;;;;102.60;26.13;;;;;;;2.23;100.00;102947.97;4996949;28;20095;-81
2021/12/19 09:49:35;;;;;;;88.32;24.77;;;;;;;2.50;100.00;102955.63;5023221;28;20041;-81
2021/12/19 09:52:05;;;;;;;96.22;22.30;;;;;;;2.79;100.00;102946.31;5037062;28;20474;-81
2021/12/19 09:54:32;;;;;;;105.60;28.05;;;;;;;3.02;100.00;102942.59;5005628;28;20034;-80
2021/12/19 09:56:57;;;;;;;121.50;28.52;;;;;;;3.25;100.00;102954.75;5029145;28;20039;-80
2021/12/19 09:59:23;;;;;;;100.65;25.40;;;;;;;3.63;100.00;102944.03;5008702;28;20087;-82
2021/12/19 10:01:50;;;;;;;107.30;23.33;;;;;;;3.65;100.00;102944.81;5024436;28;20065;-82
2021/12/19 10:04:40;;;;;;;75.57;18.05;;;;;;;3.94;100.00;102952.19;5026502;28;20045;-82
2021/12/19 10:07:10;;;;;;;102.32;24.42;;;;;;;4.54;100.00;102949.03;5014838;28;20029;-81
2021/12/19 10:09:54;;;;;;;93.72;22.02;;;;;;;4.69;100.00;102938.50;4994956;28;20084;-83
2021/12/19 10:12:38;;;;;;;88.85;20.65;;;;;;;5.25;99.33;102940.63;4991899;28;20046;-82
2021/12/19 10:15:11;;;;;;;108.00;25.73;;;;;;;6.44;94.68;102915.78;5015034;28;20043;-82
2021/12/19 10:17:39;;;;;;;120.68;26.55;;;;;;;7.45;90.65;102936.00;5030286;28;20073;-82
2021/12/19 10:20:10;;;;;;;128.38;29.83;;;;;;;8.09;88.59;102913.81;5008909;28;20452;-83
2021/12/19 10:22:38;;;;;;;93.63;26.25;;;;;;;8.67;86.03;102931.19;5010493;28;20041;-84
2021/12/19 10:25:21;;;;;;;72.68;22.52;;;;;;;9.05;84.95;102918.63;5022106;28;20044;-82
2021/12/19 10:27:55;;;;;;;85.90;26.17;;;;;;;9.56;84.01;102916.59;5026194;28;20446;-82
2021/12/19 10:30:50;;;;;;;;;;;;;;;9.99;81.74;102926.72;5024254;28;20029;-81
2021/12/19 10:33:22;;;;;;;40.80;13.38;;;;;;;10.11;80.47;102923.09;5017386;28;19925;-83
2021/12/19 10:35:50;;;;;;;67.37;20.63;;;;;;;10.19;80.34;102916.22;5019604;28;20478;-82
2021/12/19 10:38:19;;;;;;;39.83;14.75;;;;;;;10.27;79.90;102903.06;5027710;28;20025;-84
2021/12/19 10:40:53;;;;;;;64.60;20.85;;;;;;;10.42;80.33;102926.06;5024460;28;20037;-82
2021/12/19 10:43:20;;;;;;;51.10;18.42;;;;;;;10.65;79.83;102928.75;5041357;28;20037;-80
2021/12/19 10:46:12;;;;;;;71.32;24.60;;;;;;;10.51;80.42;102922.66;5011474;28;20513;-85
2021/12/19 10:48:43;;;;;;;55.13;17.38;;;;;;;10.29;80.44;102912.75;5008332;28;20030;-86
2021/12/19 10:51:18;;;;;;;100.50;33.22;;;;;;;10.24;80.60;102916.72;5029518;28;20053;-84
2021/12/19 10:53:52;;;;;;;54.60;20.67;;;;;;;10.26;79.53;102912.09;5013380;28;20045;-84
2021/12/19 10:56:29;;;;;;;61.55;20.73;;;;;;;10.16;80.11;102897.66;5030094;28;20065;-84
2021/12/19 10:59:01;;;;;;;59.85;20.45;;;;;;;10.12;80.63;102919.41;4994281;28;20038;-84
2021/12/19 11:01:32;;;;;;;51.87;17.07;;;;;;;9.79;81.62;102895.16;5054287;28;20396;-85
2021/12/19 11:04:19;;;;;;;64.60;19.10;;;;;;;9.60;83.05;102909.97;5031011;28;20025;-82
2021/12/19 11:06:45;;;;;;;42.55;19.83;;;;;;;9.38;83.65;102918.81;5027236;28;20030;-82
2021/12/19 11:09:18;;;;;;;56.42;16.63;;;;;;;9.48;83.33;102916.31;5032448;28;20037;-82
2021/12/19 11:11:49;;;;;;;50.65;17.27;;;;;;;9.72;82.60;102899.28;5012770;28;20030;-85
2021/12/19 11:14:18;;;;;;;43.42;14.23;;;;;;;10.05;81.22;102896.66;5030800;28;20415;-86
2021/12/19 11:16:44;;;;;;;43.90;18.17;;;;;;;10.09;81.30;102916.13;5006903;28;20091;-84
2021/12/19 11:19:11;;;;;;;52.03;18.60;;;;;;;10.50;80.21;102915.53;5030231;28;20053;-84
2021/12/19 11:21:37;;;;;;;57.53;19.85;;;;;;;10.23;80.10;102907.81;5004083;28;20037;-84
2021/12/19 11:24:05;;;;;;;57.10;19.58;;;;;;;9.60;82.44;102888.50;4997153;28;20568;-84
2021/12/19 11:26:32;;;;;;;60.90;21.30;;;;;;;9.34;83.79;102877.06;5013141;28;20037;-83
2021/12/19 11:28:57;;;;;;;34.53;14.65;;;;;;;8.46;87.90;102876.41;5013347;28;20642;-84
2021/12/19 11:31:30;;;;;;;61.53;19.85;;;;;;;8.86;87.18;102892.31;5014231;28;20044;-83
2021/12/19 11:34:11;;;;;;;52.88;19.85;;;;;;;8.74;87.35;102883.34;5024992;28;20120;-83
2021/12/19 11:36:42;;;;;;;55.63;26.40;;;;;;;9.47;85.00;102876.97;5028055;28;20044;-84
2021/12/19 11:39:08;;;;;;;60.05;26.00;;;;;;;9.57;83.63;102874.47;5013017;28;20029;-83
2021/12/19 11:41:35;;;;;;;62.70;19.73;;;;;;;8.83;87.41;102854.97;4996702;28;20033;-82
2021/12/19 11:44:04;;;;;;;53.78;20.85;;;;;;;8.56;88.71;102861.38;5030666;28;20386;-84
2021/12/19 11:46:51;;;;;;;64.05;19.75;;;;;;;9.09;87.47;102866.47;5013634;28;20022;-83
2021/12/19 11:49:21;;;;;;;58.22;22.40;;;;;;;8.96;86.21;102850.41;5012244;28;20040;-83
2021/12/19 11:51:48;;;;;;;47.30;17.55;;;;;;;8.60;88.23;102846.81;5010426;28;20082;-82
2021/12/19 11:54:16;;;;;;;39.95;15.77;;;;;;;9.03;87.52;102851.69;5030923;28;20536;-82
2021/12/19 11:57:09;;;;;;;49.83;19.77;;;;;;;9.18;86.91;102855.91;5029176;28;20025;-83
2021/12/19 11:59:36;;;;;;;54.47;19.27;;;;;;;9.20;88.50;102851.25;4985648;28;20046;-83
2021/12/19 12:02:24;;;;;;;54.13;18.50;;;;;;;8.75;91.24;102847.47;5025931;28;20037;-83
2021/12/19 12:05:15;;;;;;;59.95;17.30;;;;;;;8.70;92.37;102850.50;5028609;28;20533;-82
2021/12/19 12:08:06;;;;;;;35.22;14.65;;;;;;;8.58;93.20;102840.69;5009967;28;20038;-82
2021/12/19 12:11:04;;;;;;;56.50;17.38;;;;;;;8.67;92.03;102828.41;5017063;28;20029;-84
2021/12/19 12:13:41;;;;;;;43.60;14.27;;;;;;;8.80;90.42;102822.03;5011027;28;20088;-82
2021/12/19 12:16:36;;;;;;;54.85;17.67;;;;;;;8.41;92.33;102830.31;5015217;28;20088;-83